createdAt,value
2023-05-09T00:00:37.475Z,99438.09
2023-05-09T00:03:14.416Z,99441.80
2023-05-09T00:05:42.454Z,99443.42
2023-05-09T00:08:10.088Z,99439.70
2023-05-09T00:10:37.671Z,99439.40
2023-05-09T00:13:06.232Z,99435.77
2023-05-09T00:15:34.198Z,99433.61
2023-05-09T00:18:01.941Z,99434.00
2023-05-09T00:20:29.612Z,99434.20
2023-05-09T00:22:57.255Z,99432.67
2023-05-09T00:25:25.278Z,99430.75
2023-05-09T00:27:52.880Z,99426.75
2023-05-09T00:30:20.476Z,99422.45
2023-05-09T00:32:48.193Z,99425.50
2023-05-09T00:35:16.434Z,99426.75
2023-05-09T00:37:44.277Z,99427.92
2023-05-09T00:40:12.447Z,99426.45
2023-05-09T00:42:40.115Z,99426.65
2023-05-09T00:45:08.793Z,99420.40
2023-05-09T00:47:36.482Z,99417.00
2023-05-09T00:50:05.261Z,99416.31
2023-05-09T00:52:33.409Z,99412.14
2023-05-09T00:55:01.026Z,99405.50
2023-05-09T00:57:28.680Z,99402.75
2023-05-09T00:59:56.242Z,99404.20
2023-05-09T01:02:24.175Z,99402.45
2023-05-09T01:04:52.052Z,99401.45
2023-05-09T01:07:39.458Z,99400.59
2023-05-09T01:10:16.321Z,99401.01
2023-05-09T01:12:52.584Z,99400.08
2023-05-09T01:15:26.811Z,99399.09
2023-05-09T01:17:58.871Z,99396.59
2023-05-09T01:20:30.563Z,99396.44
2023-05-09T01:23:30.573Z,99399.02
2023-05-09T01:26:10.214Z,99400.90
2023-05-09T01:28:56.960Z,99395.74
2023-05-09T01:31:24.817Z,99391.15
2023-05-09T01:33:54.899Z,99387.27
2023-05-09T01:36:22.536Z,99389.61
2023-05-09T01:38:50.513Z,99387.08
2023-05-09T01:41:18.156Z,99387.36
2023-05-09T01:43:46.285Z,99388.07
2023-05-09T01:46:14.329Z,99387.10
2023-05-09T01:48:42.316Z,99389.07
2023-05-09T01:51:10.081Z,99383.30
2023-05-09T01:53:37.678Z,99384.55
2023-05-09T01:56:05.696Z,99375.55
2023-05-09T01:58:33.784Z,99372.79
2023-05-09T02:01:01.462Z,99373.86
2023-05-09T02:03:30.054Z,99374.57
2023-05-09T02:05:57.667Z,99378.03
2023-05-09T02:08:25.353Z,99381.19
2023-05-09T02:10:53.254Z,99379.15
2023-05-09T02:13:21.088Z,99378.80
2023-05-09T02:15:48.835Z,99377.92
2023-05-09T02:18:17.378Z,99371.11
2023-05-09T02:20:45.012Z,99369.02
2023-05-09T02:23:12.775Z,99372.48
2023-05-09T02:25:40.728Z,99371.92
2023-05-09T02:28:09.176Z,99373.88
2023-05-09T02:30:43.324Z,99373.86
2023-05-09T02:33:12.749Z,99367.64
2023-05-09T02:35:42.433Z,99364.58
2023-05-09T02:38:10.132Z,99365.65
2023-05-09T02:40:37.730Z,99360.45
2023-05-09T02:43:05.500Z,99361.23
2023-05-09T02:45:33.142Z,99362.70
2023-05-09T02:48:00.956Z,99363.87
2023-05-09T02:50:28.721Z,99359.17
2023-05-09T02:52:56.339Z,99358.91
2023-05-09T02:55:24.084Z,99363.88
2023-05-09T02:57:58.976Z,99361.68
2023-05-09T03:00:33.258Z,99363.74
2023-05-09T03:03:00.925Z,99368.08
2023-05-09T03:05:28.735Z,99368.92
2023-05-09T03:07:56.370Z,99366.64
2023-05-09T03:10:24.045Z,99369.83
2023-05-09T03:12:51.766Z,99364.05
2023-05-09T03:15:20.471Z,99360.72
2023-05-09T03:17:48.256Z,99359.58
2023-05-09T03:20:16.091Z,99361.80
2023-05-09T03:22:43.788Z,99361.37
2023-05-09T03:25:11.420Z,99360.98
2023-05-09T03:27:39.040Z,99356.37
2023-05-09T03:30:07.751Z,99358.50
2023-05-09T03:32:35.424Z,99356.17
2023-05-09T03:35:03.409Z,99359.81
2023-05-09T03:37:31.179Z,99357.84
2023-05-09T03:39:58.780Z,99360.20
2023-05-09T03:42:26.406Z,99360.91
2023-05-09T03:44:55.067Z,99364.20
2023-05-09T03:47:22.683Z,99359.88
2023-05-09T03:49:50.746Z,99364.33
2023-05-09T03:52:18.415Z,99362.57
2023-05-09T03:54:46.159Z,99365.39
2023-05-09T03:57:13.799Z,99360.30
2023-05-09T03:59:41.495Z,99362.42
2023-05-09T04:02:09.164Z,99363.27
2023-05-09T04:04:36.941Z,99365.81
2023-05-09T04:07:04.528Z,99363.02
2023-05-09T04:09:32.211Z,99363.58
2023-05-09T04:11:59.856Z,99363.89
2023-05-09T04:14:27.451Z,99362.64
2023-05-09T04:16:55.090Z,99360.48
2023-05-09T04:19:22.991Z,99366.20
2023-05-09T04:21:50.825Z,99359.70
2023-05-09T04:24:18.473Z,99359.87
2023-05-09T04:26:46.277Z,99361.27
2023-05-09T04:29:13.943Z,99357.63
2023-05-09T04:31:41.664Z,99350.02
2023-05-09T04:34:09.478Z,99349.86
2023-05-09T04:36:37.072Z,99349.45
2023-05-09T04:39:05.400Z,99347.30
2023-05-09T04:41:33.035Z,99343.52
2023-05-09T04:44:00.922Z,99344.98
2023-05-09T04:46:28.629Z,99338.26
2023-05-09T04:48:56.355Z,99340.88
2023-05-09T04:51:24.138Z,99339.04
2023-05-09T04:53:52.292Z,99339.95
2023-05-09T04:56:19.972Z,99340.77
2023-05-09T04:58:47.652Z,99342.23
2023-05-09T05:01:16.811Z,99343.23
2023-05-09T05:03:45.996Z,99343.91
2023-05-09T05:06:13.699Z,99341.89
2023-05-09T05:08:41.329Z,99337.83
2023-05-09T05:11:08.952Z,99336.17
2023-05-09T05:13:36.596Z,99333.06
2023-05-09T05:16:04.807Z,99334.38
2023-05-09T05:18:32.628Z,99336.91
2023-05-09T05:21:00.261Z,99335.35
2023-05-09T05:23:27.879Z,99335.36
2023-05-09T05:25:55.591Z,99330.41
2023-05-09T05:28:23.682Z,99333.48
2023-05-09T05:30:51.342Z,99333.30
2023-05-09T05:33:19.006Z,99335.30
2023-05-09T05:35:46.706Z,99332.39
2023-05-09T05:38:14.303Z,99328.56
2023-05-09T05:40:41.998Z,99326.60
2023-05-09T05:43:09.647Z,99325.10
2023-05-09T05:45:37.835Z,99326.69
2023-05-09T05:48:05.760Z,99322.31
2023-05-09T05:50:33.554Z,99316.64
2023-05-09T05:53:01.225Z,99312.54
2023-05-09T05:55:28.979Z,99313.36
2023-05-09T05:57:56.756Z,99301.27
2023-05-09T06:00:24.529Z,99305.48
2023-05-09T06:02:52.386Z,99300.83
2023-05-09T06:05:20.445Z,99300.23
2023-05-09T06:07:48.316Z,99299.01
2023-05-09T06:10:17.132Z,99294.58
2023-05-09T06:12:44.826Z,99298.63
2023-05-09T06:15:12.766Z,99302.66
2023-05-09T06:17:40.920Z,99299.27
2023-05-09T06:20:08.775Z,99299.11
2023-05-09T06:22:36.362Z,99297.27
2023-05-09T06:25:04.388Z,99297.84
2023-05-09T06:27:31.981Z,99297.33
2023-05-09T06:30:00.270Z,99296.04
2023-05-09T06:32:28.127Z,99296.69
2023-05-09T06:34:56.059Z,99294.48
2023-05-09T06:37:23.635Z,99287.90
2023-05-09T06:39:51.393Z,99283.27
2023-05-09T06:42:19.120Z,99279.73
2023-05-09T06:44:46.851Z,99276.56
2023-05-09T06:47:14.562Z,99276.03
2023-05-09T06:49:42.879Z,99276.86
2023-05-09T06:52:10.477Z,99265.92
2023-05-09T06:54:39.120Z,99265.59
2023-05-09T06:57:06.703Z,99258.70
2023-05-09T06:59:34.356Z,99260.51
2023-05-09T07:02:02.140Z,99256.77
2023-05-09T07:04:29.938Z,99251.98
2023-05-09T07:06:59.269Z,99246.98
2023-05-09T07:09:28.824Z,99246.52
2023-05-09T07:11:56.570Z,99244.45
2023-05-09T07:14:24.180Z,99239.92
2023-05-09T07:16:51.896Z,99241.02
2023-05-09T07:19:19.651Z,99238.68
2023-05-09T07:21:47.254Z,99240.32
2023-05-09T07:24:14.913Z,99231.00
2023-05-09T07:26:42.533Z,99223.77
2023-05-09T07:29:10.166Z,99219.66
2023-05-09T07:31:37.864Z,99223.05
2023-05-09T07:34:05.506Z,99221.20
2023-05-09T07:36:35.340Z,99220.38
2023-05-09T07:39:04.886Z,99211.65
2023-05-09T07:41:32.524Z,99209.89
2023-05-09T07:44:00.143Z,99216.86
2023-05-09T07:46:27.847Z,99215.45
2023-05-09T07:48:55.767Z,99208.27
2023-05-09T07:51:24.043Z,99216.98
2023-05-09T07:53:51.657Z,99217.16
2023-05-09T07:56:19.292Z,99212.77
2023-05-09T07:58:46.943Z,99212.39
2023-05-09T08:01:14.791Z,99208.86
2023-05-09T08:03:42.536Z,99211.24
2023-05-09T08:06:10.220Z,99206.48
2023-05-09T08:08:38.967Z,99201.77
2023-05-09T08:11:06.913Z,99201.27
2023-05-09T08:13:34.519Z,99198.44
2023-05-09T08:16:02.764Z,99197.69
2023-05-09T08:18:30.466Z,99193.33
2023-05-09T08:20:59.747Z,99190.88
2023-05-09T08:23:28.169Z,99190.20
2023-05-09T08:25:56.345Z,99195.98
2023-05-09T08:28:24.432Z,99191.92
2023-05-09T08:30:52.403Z,99186.95
2023-05-09T08:33:20.182Z,99185.32
2023-05-09T08:35:54.016Z,99192.29
2023-05-09T08:38:21.691Z,99192.38
2023-05-09T08:40:49.387Z,99189.30
2023-05-09T08:43:19.837Z,99182.36
2023-05-09T08:45:58.639Z,99175.41
2023-05-09T08:48:27.951Z,99176.73
2023-05-09T08:50:56.201Z,99172.27
2023-05-09T08:53:23.924Z,99162.35
2023-05-09T08:55:52.278Z,99162.27
2023-05-09T08:58:22.772Z,99159.05
2023-05-09T09:00:50.847Z,99157.60
2023-05-09T09:03:19.368Z,99159.15
2023-05-09T09:05:47.585Z,99158.39
2023-05-09T09:08:15.448Z,99159.92
2023-05-09T09:10:47.171Z,99155.80
2023-05-09T09:13:15.452Z,99153.09
2023-05-09T09:15:44.155Z,99157.39
2023-05-09T09:18:13.005Z,99160.58
2023-05-09T09:20:43.708Z,99156.75
2023-05-09T09:23:11.453Z,99154.34
2023-05-09T09:25:39.305Z,99152.63
2023-05-09T09:28:07.113Z,99142.50
2023-05-09T09:30:34.884Z,99147.64
2023-05-09T09:33:02.552Z,99144.35
2023-05-09T09:35:30.347Z,99146.37
2023-05-09T09:38:00.139Z,99141.35
2023-05-09T09:40:28.100Z,99140.54
2023-05-09T09:42:56.038Z,99139.71
2023-05-09T09:45:23.770Z,99139.58
2023-05-09T09:47:51.408Z,99138.93
2023-05-09T09:50:20.227Z,99142.14
2023-05-09T09:52:57.838Z,99136.40
2023-05-09T09:55:25.475Z,99129.27
2023-05-09T09:57:53.183Z,99126.01
2023-05-09T10:00:27.832Z,99125.63
2023-05-09T10:02:59.197Z,99122.73
2023-05-09T10:05:29.131Z,99116.61
2023-05-09T10:08:01.564Z,99118.67
2023-05-09T10:10:33.849Z,99115.77
2023-05-09T10:13:07.474Z,99114.62
2023-05-09T10:15:49.462Z,99100.39
2023-05-09T10:18:23.128Z,99101.88
2023-05-09T10:20:50.907Z,99099.48
2023-05-09T10:23:18.672Z,99098.11
2023-05-09T10:25:55.542Z,99096.45
2023-05-09T10:28:25.294Z,99097.02
2023-05-09T10:31:22.136Z,99090.77
2023-05-09T10:33:50.377Z,99092.94
2023-05-09T10:36:20.713Z,99091.27
2023-05-09T10:38:49.188Z,99087.02
2023-05-09T10:41:17.270Z,99088.08
2023-05-09T10:43:45.864Z,99084.89
2023-05-09T10:46:13.652Z,99076.33
2023-05-09T10:48:42.195Z,99080.98
2023-05-09T10:51:10.328Z,99079.71
2023-05-09T10:53:50.905Z,99080.91
2023-05-09T10:56:32.720Z,99072.65
2023-05-09T10:59:00.477Z,99076.08
2023-05-09T11:01:34.827Z,99070.83
2023-05-09T11:04:08.916Z,99063.95
2023-05-09T11:06:51.366Z,99057.05
2023-05-09T11:09:29.439Z,99055.45
2023-05-09T11:11:59.437Z,99061.98
2023-05-09T11:14:40.808Z,99055.56
2023-05-09T11:17:12.937Z,99055.05
2023-05-09T11:19:46.513Z,99059.48
2023-05-09T11:22:15.362Z,99053.58
2023-05-09T11:24:50.196Z,99052.09
2023-05-09T11:27:21.973Z,99050.80
2023-05-09T11:29:59.843Z,99047.52
2023-05-09T11:32:28.846Z,99040.15
2023-05-09T11:35:17.855Z,99032.11
2023-05-09T11:38:02.288Z,99030.80
2023-05-09T11:40:30.229Z,99028.20
2023-05-09T11:42:58.948Z,99024.21
2023-05-09T11:45:30.885Z,99023.18
2023-05-09T11:47:58.709Z,99009.73
2023-05-09T11:50:26.543Z,99003.34
2023-05-09T11:52:54.234Z,99004.99
2023-05-09T11:55:22.945Z,99003.08
2023-05-09T11:57:52.542Z,99003.24
2023-05-09T12:00:24.429Z,99000.13
2023-05-09T12:02:52.808Z,98995.07
2023-05-09T12:05:21.506Z,98990.98
2023-05-09T12:07:49.253Z,98987.86
2023-05-09T12:10:19.914Z,98983.41
2023-05-09T12:12:49.166Z,98980.27
2023-05-09T12:15:17.678Z,98977.26
2023-05-09T12:17:47.297Z,98973.67
2023-05-09T12:20:15.958Z,98969.44
2023-05-09T12:22:43.913Z,98964.77
2023-05-09T12:25:12.085Z,98963.20
2023-05-09T12:27:41.074Z,98966.60
2023-05-09T12:30:10.597Z,98960.23
2023-05-09T12:32:40.460Z,98959.02
2023-05-09T12:35:09.639Z,98960.26
2023-05-09T12:37:37.837Z,98955.45
2023-05-09T12:40:12.612Z,98952.77
2023-05-09T12:42:43.128Z,98945.35
2023-05-09T12:45:11.707Z,98945.05
2023-05-09T12:47:39.672Z,98945.14
2023-05-09T12:50:08.268Z,98937.71
2023-05-09T12:52:50.721Z,98923.15
2023-05-09T12:55:26.501Z,98925.08
2023-05-09T12:58:03.861Z,98923.18
2023-05-09T13:00:47.031Z,98926.83
2023-05-09T13:03:26.081Z,98925.04
2023-05-09T13:05:57.516Z,98922.06
2023-05-09T13:08:25.656Z,98915.95
2023-05-09T13:11:00.734Z,98908.98
2023-05-09T13:13:32.052Z,98910.10
2023-05-09T13:15:59.794Z,98908.65
2023-05-09T13:18:27.456Z,98902.58
2023-05-09T13:20:55.124Z,98897.52
2023-05-09T13:23:22.963Z,98893.23
2023-05-09T13:25:51.721Z,98903.23
2023-05-09T13:28:19.323Z,98897.16
2023-05-09T13:30:47.166Z,98884.52
2023-05-09T13:33:25.374Z,98887.66
2023-05-09T13:35:54.304Z,98886.25
2023-05-09T13:38:21.982Z,98880.58
2023-05-09T13:40:49.759Z,98873.30
2023-05-09T13:43:17.360Z,98878.96
2023-05-09T13:45:45.056Z,98872.28
2023-05-09T13:48:12.882Z,98869.88
2023-05-09T13:50:40.685Z,98868.77
2023-05-09T13:53:08.451Z,98868.63
2023-05-09T13:55:36.066Z,98871.82
2023-05-09T13:58:03.669Z,98872.66
2023-05-09T14:00:31.393Z,98866.30
2023-05-09T14:02:59.094Z,98863.88
2023-05-09T14:05:26.919Z,98854.44
2023-05-09T14:07:55.044Z,98848.99
2023-05-09T14:10:24.166Z,98845.90
2023-05-09T14:12:53.546Z,98847.16
2023-05-09T14:15:21.303Z,98847.41
2023-05-09T14:17:49.095Z,98846.25
2023-05-09T14:20:16.969Z,98839.98
2023-05-09T14:22:45.003Z,98847.42
2023-05-09T14:25:12.741Z,98842.69
2023-05-09T14:27:40.641Z,98836.60
2023-05-09T14:30:09.254Z,98835.42
2023-05-09T14:32:37.251Z,98824.31
2023-05-09T14:35:05.466Z,98823.94
2023-05-09T14:37:33.962Z,98822.77
2023-05-09T14:40:05.545Z,98825.11
2023-05-09T14:42:33.327Z,98825.20
2023-05-09T14:45:00.996Z,98821.66
2023-05-09T14:47:28.761Z,98823.98
2023-05-09T14:49:56.768Z,98821.94
2023-05-09T14:52:24.407Z,98816.66
2023-05-09T14:54:52.038Z,98813.02
2023-05-09T14:57:19.898Z,98808.61
2023-05-09T14:59:47.491Z,98807.34
2023-05-09T15:02:15.090Z,98799.45
2023-05-09T15:04:43.868Z,98799.32
2023-05-09T15:07:11.963Z,98795.91
2023-05-09T15:09:39.617Z,98791.88
2023-05-09T15:12:07.393Z,98791.53
2023-05-09T15:14:35.120Z,98791.66
2023-05-09T15:17:04.364Z,98784.02
2023-05-09T15:19:33.948Z,98780.14
2023-05-09T15:22:02.620Z,98778.46
2023-05-09T15:24:30.796Z,98770.42
2023-05-09T15:26:58.633Z,98767.77
2023-05-09T15:29:26.793Z,98762.55
2023-05-09T15:31:54.615Z,98761.57
2023-05-09T15:34:22.978Z,98756.50
2023-05-09T15:36:50.826Z,98752.31
2023-05-09T15:39:18.464Z,98754.23
2023-05-09T15:41:46.087Z,98755.44
2023-05-09T15:44:14.751Z,98753.17
2023-05-09T15:46:42.492Z,98750.04
2023-05-09T15:49:10.197Z,98745.86
2023-05-09T15:51:38.054Z,98747.48
2023-05-09T15:54:05.644Z,98745.73
2023-05-09T15:56:33.226Z,98744.42
2023-05-09T15:59:01.180Z,98743.48
2023-05-09T16:01:28.812Z,98743.47
2023-05-09T16:03:56.851Z,98736.68
2023-05-09T16:06:24.642Z,98735.30
2023-05-09T16:08:52.479Z,98732.04
2023-05-09T16:11:20.206Z,98726.85
2023-05-09T16:13:47.923Z,98719.52
2023-05-09T16:16:15.724Z,98714.96
2023-05-09T16:18:43.569Z,98717.02
2023-05-09T16:21:11.783Z,98711.11
2023-05-09T16:23:39.602Z,98710.23
2023-05-09T16:26:07.339Z,98710.27
2023-05-09T16:28:35.033Z,98710.20
2023-05-09T16:31:05.045Z,98709.89
2023-05-09T16:33:32.829Z,98709.52
2023-05-09T16:36:00.785Z,98706.13
2023-05-09T16:38:28.420Z,98705.34
2023-05-09T16:40:56.392Z,98703.52
2023-05-09T16:43:24.262Z,98710.00
2023-05-09T16:45:52.898Z,98703.81
2023-05-09T16:48:20.654Z,98697.37
2023-05-09T16:50:48.409Z,98696.39
2023-05-09T16:53:17.590Z,98694.42
2023-05-09T16:55:45.995Z,98688.36
2023-05-09T16:58:13.754Z,98686.47
2023-05-09T17:00:41.338Z,98682.86
2023-05-09T17:03:09.108Z,98679.41
2023-05-09T17:05:36.933Z,98682.98
2023-05-09T17:08:05.273Z,98682.59
2023-05-09T17:10:34.177Z,98676.82
2023-05-09T17:13:07.689Z,98676.23
2023-05-09T17:15:35.666Z,98673.70
2023-05-09T17:18:03.704Z,98676.33
2023-05-09T17:20:31.824Z,98678.18
2023-05-09T17:22:59.472Z,98674.94
2023-05-09T17:25:27.528Z,98672.48
2023-05-09T17:27:55.142Z,98678.19
2023-05-09T17:30:23.390Z,98670.60
2023-05-09T17:32:51.410Z,98671.64
2023-05-09T17:35:20.802Z,98673.87
2023-05-09T17:37:48.716Z,98672.83
2023-05-09T17:40:16.660Z,98675.70
2023-05-09T17:42:44.442Z,98674.73
2023-05-09T17:45:14.923Z,98675.13
2023-05-09T17:47:42.558Z,98678.90
2023-05-09T17:50:14.542Z,98680.89
2023-05-09T17:52:44.025Z,98684.05
2023-05-09T17:55:12.189Z,98683.63
2023-05-09T17:57:40.786Z,98685.98
2023-05-09T18:00:09.349Z,98684.75
2023-05-09T18:02:37.178Z,98680.50
2023-05-09T18:05:05.817Z,98683.09
2023-05-09T18:07:33.903Z,98683.91
2023-05-09T18:10:01.650Z,98681.17
2023-05-09T18:12:31.148Z,98677.73
2023-05-09T18:14:58.869Z,98678.35
2023-05-09T18:17:26.473Z,98681.92
2023-05-09T18:19:54.056Z,98675.81
2023-05-09T18:22:22.313Z,98673.56
2023-05-09T18:24:49.993Z,98676.94
2023-05-09T18:27:17.624Z,98680.49
2023-05-09T18:29:47.505Z,98681.54
2023-05-09T18:32:15.481Z,98680.14
2023-05-09T18:34:43.437Z,98678.55
2023-05-09T18:37:11.104Z,98679.44
2023-05-09T18:39:38.711Z,98679.43
2023-05-09T18:42:06.579Z,98679.06
2023-05-09T18:44:35.198Z,98685.90
2023-05-09T18:47:02.897Z,98687.80
2023-05-09T18:49:30.542Z,98694.27
2023-05-09T18:52:00.199Z,98697.73
2023-05-09T18:54:27.863Z,98695.41
2023-05-09T18:56:55.441Z,98695.71
2023-05-09T18:59:23.584Z,98688.48
2023-05-09T19:01:51.214Z,98687.22
2023-05-09T19:04:19.601Z,98690.67
2023-05-09T19:06:47.604Z,98683.97
2023-05-09T19:09:15.478Z,98683.59
2023-05-09T19:11:43.409Z,98684.23
2023-05-09T19:14:11.037Z,98681.73
2023-05-09T19:16:38.679Z,98684.30
2023-05-09T19:19:06.324Z,98685.67
2023-05-09T19:21:35.724Z,98681.77
2023-05-09T19:24:04.799Z,98680.14
2023-05-09T19:26:32.515Z,98676.75
2023-05-09T19:29:01.332Z,98675.64
2023-05-09T19:31:31.382Z,98681.52
2023-05-09T19:33:59.857Z,98677.11
2023-05-09T19:36:27.527Z,98679.52
2023-05-09T19:38:55.178Z,98674.02
2023-05-09T19:41:22.798Z,98672.88
2023-05-09T19:43:51.457Z,98670.73
2023-05-09T19:46:19.426Z,98670.13
2023-05-09T19:48:47.134Z,98666.59
2023-05-09T19:51:15.527Z,98668.96
2023-05-09T19:53:43.156Z,98668.20
2023-05-09T19:56:11.673Z,98670.23
2023-05-09T19:58:39.271Z,98670.52
2023-05-09T20:01:07.361Z,98671.84
2023-05-09T20:03:37.021Z,98670.38
2023-05-09T20:06:05.036Z,98670.30
2023-05-09T20:08:32.778Z,98672.33
2023-05-09T20:11:00.400Z,98672.98
2023-05-09T20:13:28.146Z,98672.38
2023-05-09T20:15:57.134Z,98664.98
2023-05-09T20:18:24.851Z,98660.71
2023-05-09T20:20:53.952Z,98662.39
2023-05-09T20:23:21.567Z,98663.36
2023-05-09T20:25:49.273Z,98660.84
2023-05-09T20:28:20.323Z,98660.59
2023-05-09T20:30:48.680Z,98659.48
2023-05-09T20:33:16.330Z,98657.80
2023-05-09T20:35:43.995Z,98666.66
2023-05-09T20:38:11.692Z,98661.88
2023-05-09T20:40:40.349Z,98659.36
2023-05-09T20:43:08.134Z,98659.81
2023-05-09T20:45:37.497Z,98663.08
2023-05-09T20:48:06.655Z,98662.98
2023-05-09T20:50:34.400Z,98661.83
2023-05-09T20:53:02.063Z,98656.70
2023-05-09T20:55:29.726Z,98655.23
2023-05-09T20:57:57.987Z,98652.39
2023-05-09T21:00:25.659Z,98651.11
2023-05-09T21:02:56.910Z,98649.46
2023-05-09T21:05:26.179Z,98648.17
2023-05-09T21:07:53.881Z,98647.77
2023-05-09T21:10:21.492Z,98642.30
2023-05-09T21:12:49.148Z,98642.45
2023-05-09T21:15:16.923Z,98641.41
2023-05-09T21:17:44.739Z,98644.35
2023-05-09T21:20:12.812Z,98646.45
2023-05-09T21:22:40.665Z,98638.93
2023-05-09T21:25:09.015Z,98646.05
2023-05-09T21:27:36.621Z,98643.95
2023-05-09T21:30:04.982Z,98643.43
2023-05-09T21:32:32.589Z,98640.98
2023-05-09T21:35:01.432Z,98640.07
2023-05-09T21:37:29.201Z,98635.15
2023-05-09T21:39:57.216Z,98633.74
2023-05-09T21:42:24.953Z,98637.75
2023-05-09T21:44:52.614Z,98633.67
2023-05-09T21:47:20.600Z,98635.73
2023-05-09T21:49:48.352Z,98635.52
2023-05-09T21:52:16.496Z,98630.25
2023-05-09T21:54:44.304Z,98632.98
2023-05-09T21:57:11.899Z,98634.88
2023-05-09T21:59:39.508Z,98634.49
2023-05-09T22:02:07.186Z,98634.27
2023-05-09T22:04:34.889Z,98636.50
2023-05-09T22:07:02.542Z,98636.43
2023-05-09T22:09:30.450Z,98636.55
2023-05-09T22:11:58.103Z,98638.25
2023-05-09T22:14:25.806Z,98636.27
2023-05-09T22:16:53.530Z,98639.37
2023-05-09T22:19:21.301Z,98634.42
2023-05-09T22:21:49.079Z,98636.13
2023-05-09T22:24:16.723Z,98634.32
2023-05-09T22:26:44.321Z,98630.26
2023-05-09T22:29:12.034Z,98633.15
2023-05-09T22:31:39.673Z,98631.36
2023-05-09T22:34:07.359Z,98630.94
2023-05-09T22:36:35.049Z,98630.52
2023-05-09T22:39:03.206Z,98627.16
2023-05-09T22:41:30.786Z,98623.45
2023-05-09T22:43:58.413Z,98622.52
2023-05-09T22:46:26.109Z,98621.94
2023-05-09T22:48:53.714Z,98618.20
2023-05-09T22:51:21.420Z,98619.52
2023-05-09T22:53:49.025Z,98620.49
2023-05-09T22:56:16.740Z,98621.30
2023-05-09T22:58:44.374Z,98622.11
2023-05-09T23:01:11.999Z,98620.83
2023-05-09T23:03:39.671Z,98621.32
2023-05-09T23:06:07.514Z,98621.77
2023-05-09T23:08:35.263Z,98618.92
2023-05-09T23:11:02.930Z,98620.43
2023-05-09T23:13:30.661Z,98620.04
2023-05-09T23:15:58.354Z,98615.96
2023-05-09T23:18:28.041Z,98614.64
2023-05-09T23:20:55.671Z,98612.18
2023-05-09T23:23:23.618Z,98610.58
2023-05-09T23:25:51.204Z,98612.09
2023-05-09T23:28:20.431Z,98608.23
2023-05-09T23:30:48.060Z,98608.73
2023-05-09T23:33:16.265Z,98606.73
2023-05-09T23:35:43.875Z,98602.34
2023-05-09T23:38:11.624Z,98608.36
2023-05-09T23:40:39.793Z,98606.38
2023-05-09T23:43:07.420Z,98605.08
2023-05-09T23:45:35.104Z,98603.95
2023-05-09T23:48:02.926Z,98605.09
2023-05-09T23:50:30.629Z,98597.52
2023-05-09T23:52:58.256Z,98596.91
2023-05-09T23:55:25.854Z,98597.06
2023-05-09T23:57:53.451Z,98595.77
